Forest fire From: 19-07-2018 17:00 Until: 20-07-2018 16:00 warning for: Forest fire Level: Yellow info button
suomi:
Metsäpalovaroitus on voimassa.

svenska:
Varning för skogsbrand gäller.

english:
A forest fire warning is in force. 

Extreme high temperature From: 19-07-2018 17:00 Until: 23:00 warning for: Extreme high temperature Level: Yellow info button
suomi:
Hellevaroitus: Lähivuorokauden aikana on odotettavissa tukalaa hellettä.

svenska:
Varning för värmebölja: Under det närmaste dygnet är den svåra hettan att vänta.

english:
Heat wave warning: Warm weather is expected during the coming 24 hours. 


Thunder radar more information blitzortung!


Löydät sääaseman tiedot myös:

European Weather Network

Finland Weather Exchange

Weather Underground

AWEKAS



Weather Underground säähistoriasivu

Päivittäin yhteenveto Heinäkuu 16, 2017 Yksiköt:  Englantilaiset    Metriset   Molemmat
« Edellinen Päivä
Seuraava Päivä »
Päivittäin Viikoittain Kuukausittain Vuosittain Mukautettu
  Korkea: Matala: Keskiarvo:
Lämpötila: TemperatureC °F 8.1 °F 18.2 °F
Kastepiste: DewpointC °F 7.0 °F 9.5 °F
Kosteus: Humidity % 40 % 58 %
Tuulen nopeus: WindSpeedKMH mph 0.0 mph 3.7 mph
Tuulenpuuska: WindSpeedGustKMH mph - -
Tuuli:- - SSW
Ilmanpaine: PressurehPa in 1003.3 in -
Sade: 0.0 in    
Historical Graphs
 
 
Taulukkotiedot Heinäkuu 16, 2017
Aika Lämpötila Kastepiste Ilmanpaine Tuuli Tuulen nopeus Tuulenpuuska Kosteus Sademäärä (tunneittain)
TemperatureC °F DewpointC °F PressurehPa in Calm     Humidity % HourlyPrecipMM in
00:00 8.1 °F 7.0 °F 1015.8 in Calm     93 % 0.0 in
00:15 8.8 °F 7.4 °F 1015.8 in Calm     91 % 0.0 in
00:30 9.6 °F 7.9 °F 1015.5 in Calm   1.6 mph 89 % 0.0 in
00:45 10.7 °F 8.2 °F 1015.5 in Calm   6.4 mph 85 % 0.0 in
01:00 11.7 °F 8.7 °F 1015.5 in Calm   4.8 mph 82 % 0.0 in
01:15 12.7 °F 9.1 °F 1015.5 in Calm   8.0 mph 79 % 0.0 in
01:30 13.8 °F 9.1 °F 1015.1 in SSE 1.6 mph 9.7 mph 73 % 0.0 in
01:45 14.9 °F 8.8 °F 1015.1 in SSE 3.2 mph 12.9 mph 67 % 0.0 in
02:00 15.9 °F 9.1 °F 1014.8 in South 3.2 mph 11.3 mph 64 % 0.0 in
02:15 16.7 °F 9.3 °F 1014.8 in South 4.8 mph 14.5 mph 62 % 0.0 in
02:30 17.2 °F 9.1 °F 1014.8 in South 3.2 mph 12.9 mph 59 % 0.0 in
02:45 17.9 °F 10.1 °F 1014.4 in SW 1.6 mph 12.9 mph 60 % 0.0 in
03:00 18.4 °F 9.5 °F 1014.4 in South 4.8 mph 14.5 mph 56 % 0.0 in
03:15 18.8 °F 9.6 °F 1014.4 in SSE 4.8 mph 20.9 mph 55 % 0.0 in
03:30 19.3 °F 10.0 °F 1014.1 in South 6.4 mph 17.7 mph 55 % 0.0 in
03:45 19.7 °F 10.1 °F 1014.1 in SSW 4.8 mph 17.7 mph 54 % 0.0 in
04:00 20.2 °F 10.6 °F 1014.1 in South 4.8 mph 17.7 mph 54 % 0.0 in
04:15 20.8 °F 10.6 °F 1014.1 in South 4.8 mph 17.7 mph 52 % 0.0 in
04:30 21.4 °F 10.8 °F 1013.8 in South 3.2 mph 12.9 mph 51 % 0.0 in
04:45 21.7 °F 10.2 °F 1013.8 in South 6.4 mph 17.7 mph 48 % 0.0 in
05:00 21.8 °F 10.6 °F 1013.4 in SSW 8.0 mph 16.1 mph 49 % 0.0 in
05:15 22.0 °F 11.1 °F 1013.4 in South 8.0 mph 22.5 mph 50 % 0.0 in
05:30 21.9 °F 11.0 °F 1013.4 in South 9.7 mph 25.7 mph 50 % 0.0 in
05:45 21.9 °F 11.6 °F 1013.4 in SSW 8.0 mph 25.7 mph 52 % 0.0 in
06:00 22.1 °F 11.8 °F 1013.1 in SSW 9.7 mph 22.5 mph 52 % 0.0 in
06:15 22.7 °F 11.1 °F 1013.1 in SSW 8.0 mph 22.5 mph 48 % 0.0 in
06:30 22.6 °F 11.4 °F 1012.8 in SSW 8.0 mph 19.3 mph 49 % 0.0 in
06:45 23.1 °F 11.2 °F 1012.8 in SSW 8.0 mph 19.3 mph 47 % 0.0 in
07:00 23.3 °F 10.7 °F 1012.8 in SSW 8.0 mph 17.7 mph 45 % 0.0 in
07:15 23.3 °F 10.0 °F 1012.4 in South 8.0 mph 20.9 mph 43 % 0.0 in
07:30 23.2 °F 9.9 °F 1012.4 in SSW 8.0 mph 24.1 mph 43 % 0.0 in
07:45 23.3 °F 9.7 °F 1012.1 in SSW 8.0 mph 19.3 mph 42 % 0.0 in
08:00 23.4 °F 10.1 °F 1012.1 in SW 6.4 mph 16.1 mph 43 % 0.0 in
08:15 23.8 °F 9.4 °F 1011.7 in SSW 6.4 mph 19.3 mph 40 % 0.0 in
08:30 23.4 °F 10.1 °F 1011.7 in SSW 8.0 mph 17.7 mph 43 % 0.0 in
08:45 23.8 °F 10.5 °F 1011.4 in SSW 8.0 mph 22.5 mph 43 % 0.0 in
09:00 23.8 °F 9.7 °F 1011.4 in SSW 8.0 mph 22.5 mph 41 % 0.0 in
09:15 23.3 °F 9.7 °F 1011.4 in SSW 6.4 mph 20.9 mph 42 % 0.0 in
09:30 23.3 °F 10.7 °F 1011.1 in SSW 8.0 mph 19.3 mph 45 % 0.0 in
09:45 23.1 °F 10.1 °F 1011.1 in SSW 8.0 mph 19.3 mph 44 % 0.0 in
10:00 23.2 °F 9.9 °F 1011.1 in SSW 6.4 mph 17.7 mph 43 % 0.0 in
10:15 23.2 °F 9.9 °F 1011.1 in SSW 8.0 mph 19.3 mph 43 % 0.0 in
10:30 23.2 °F 9.6 °F 1011.1 in SSW 6.4 mph 19.3 mph 42 % 0.0 in
10:45 23.1 °F 9.1 °F 1010.7 in SSW 8.0 mph 24.1 mph 41 % 0.0 in
11:00 22.8 °F 9.5 °F 1010.7 in SSW 8.0 mph 24.1 mph 43 % 0.0 in
11:15 22.6 °F 9.4 °F 1010.4 in SW 6.4 mph 14.5 mph 43 % 0.0 in
11:30 22.1 °F 9.2 °F 1010.4 in SSW 6.4 mph 14.5 mph 44 % 0.0 in
11:45 22.0 °F 10.2 °F 1010.4 in SW 3.2 mph 12.9 mph 47 % 0.0 in
12:00 21.5 °F 10.3 °F 1010.0 in SSW 4.8 mph 16.1 mph 49 % 0.0 in
12:15 20.9 °F 9.2 °F 1010.0 in SSW 4.8 mph 17.7 mph 47 % 0.0 in
12:30 20.5 °F 9.1 °F 1010.0 in SSW 6.4 mph 20.9 mph 48 % 0.0 in
12:45 20.4 °F 9.9 °F 1009.7 in SSW 3.2 mph 14.5 mph 51 % 0.0 in
13:00 20.3 °F 9.9 °F 1009.7 in SSW 3.2 mph 11.3 mph 51 % 0.0 in
13:15 20.1 °F 9.4 °F 1009.7 in SSW 4.8 mph 17.7 mph 50 % 0.0 in
13:30 19.9 °F 9.2 °F 1009.4 in SSW 4.8 mph 12.9 mph 50 % 0.0 in
13:45 19.6 °F 8.0 °F 1009.4 in SSW 6.4 mph 14.5 mph 47 % 0.0 in
14:00 19.3 °F 7.1 °F 1009.0 in SSW 6.4 mph 17.7 mph 45 % 0.0 in
14:15 19.0 °F 7.1 °F 1009.0 in SW 3.2 mph 12.9 mph 46 % 0.0 in
14:30 18.7 °F 7.4 °F 1008.7 in SSW 1.6 mph 6.4 mph 48 % 0.0 in
14:45 18.4 °F 8.1 °F 1008.7 in Calm   4.8 mph 51 % 0.0 in
15:00 18.1 °F 7.8 °F 1008.4 in Calm   6.4 mph 51 % 0.0 in
15:15 17.9 °F 7.9 °F 1008.4 in Calm   3.2 mph 52 % 0.0 in
15:30 17.7 °F 8.0 °F 1008.0 in Calm   4.8 mph 53 % 0.0 in
15:45 17.3 °F 7.9 °F 1008.0 in Calm   4.8 mph 54 % 0.0 in
16:00 16.9 °F 8.4 °F 1008.0 in Calm   3.2 mph 57 % 0.0 in
16:30 16.6 °F 8.5 °F 1007.7 in Calm   3.2 mph 59 % 0.0 in
16:45 16.4 °F 8.8 °F 1007.7 in Calm   1.6 mph 61 % 0.0 in
17:00 16.3 °F 8.2 °F 1007.7 in Calm   4.8 mph 59 % 0.0 in
17:15 16.3 °F 8.3 °F 1007.7 in Calm   3.2 mph 59 % 0.0 in
17:30 16.2 °F 8.7 °F 1007.7 in Calm     61 % 0.0 in
17:45 15.8 °F 9.5 °F 1007.3 in Calm     66 % 0.0 in
18:00 15.6 °F 9.0 °F 1007.0 in Calm     65 % 0.0 in
18:15 15.7 °F 8.6 °F 1007.0 in Calm   6.4 mph 63 % 0.0 in
18:30 16.0 °F 8.7 °F 1006.7 in South 1.6 mph 9.7 mph 62 % 0.0 in
18:45 16.1 °F 9.5 °F 1006.7 in South 1.6 mph 8.0 mph 65 % 0.0 in
19:00 16.0 °F 9.6 °F 1006.3 in SSW 3.2 mph 9.7 mph 66 % 0.0 in
19:15 15.9 °F 9.6 °F 1006.0 in SSW 1.6 mph 12.9 mph 66 % 0.0 in
19:30 15.9 °F 9.8 °F 1006.0 in SSW 1.6 mph 8.0 mph 67 % 0.0 in
19:45 15.8 °F 9.7 °F 1005.6 in South 1.6 mph 11.3 mph 67 % 0.0 in
20:00 15.8 °F 9.9 °F 1005.6 in SSE 1.6 mph 11.3 mph 68 % 0.0 in
20:15 15.6 °F 9.9 °F 1005.6 in South 3.2 mph 16.1 mph 69 % 0.0 in
20:30 15.3 °F 10.3 °F 1005.3 in South 4.8 mph 14.5 mph 72 % 0.0 in
20:45 15.1 °F 10.7 °F 1005.0 in Calm   8.0 mph 75 % 0.0 in
21:00 14.7 °F 10.5 °F 1005.0 in SSE 3.2 mph 12.9 mph 76 % 0.0 in
21:15 14.5 °F 10.5 °F 1004.6 in Calm   8.0 mph 77 % 0.0 in
21:30 14.4 °F 10.7 °F 1004.6 in Calm   8.0 mph 78 % 0.0 in
21:45 14.3 °F 10.5 °F 1004.6 in South 1.6 mph 9.7 mph 78 % 0.0 in
22:00 14.3 °F 10.7 °F 1004.6 in SSE 1.6 mph 11.3 mph 79 % 0.0 in
22:15 14.3 °F 10.7 °F 1004.3 in SSE 1.6 mph 11.3 mph 79 % 0.0 in
22:30 14.3 °F 10.9 °F 1004.3 in Calm   8.0 mph 80 % 0.0 in
22:45 14.3 °F 10.9 °F 1003.9 in South 1.6 mph 9.7 mph 80 % 0.0 in
23:00 14.3 °F 10.9 °F 1003.9 in South 1.6 mph 9.7 mph 80 % 0.0 in
23:15 14.4 °F 11.2 °F 1003.6 in SSE 1.6 mph 12.9 mph 81 % 0.0 in
23:30 14.5 °F 11.3 °F 1003.3 in SSE 1.6 mph 6.4 mph 81 % 0.0 in
23:45 14.6 °F 11.4 °F 1003.3 in South 1.6 mph 14.5 mph 81 % 0.0 in
Esan sääasema
Terveisin Weather Underground - 2.75 mb

Alkuperäinen skripti  Jim McMurry - jmcmurry@mwt.net Sovitettu myös templatelle  Wim van der Kuil - Leuven-Template.eu

Laitteet joita käytämme:

Sääasema
Davis VP2

Sääasemaohjelma
Cumulus

Sääaseman tietokone
Asus EeePC

Palveluntarjoaja
Suncomet

Davis VP2

Cumulus

Asus EeePC

Suncomet